Terminal Aerodrome Forecast
Issued by NWS

Home | Current Version | Previous Version | Text Only | Print | Product List | Glossary On
Versions: 1 2 3 4 5 6 7 8 9 10 11 12 13 14 15 16 17 18 19 20 21 22 23 24 25 26 27 28 29 30 31 32 33 34
000
FTUS46 KSGX 012057 AAB
TAFSAN
TAF AMD
KSAN 012057Z 0121/0224 26008KT P6SM BKN022 BKN150
     FM020200 19005KT P6SM BKN020
     FM021730 19006KT P6SM SCT025
     FM022100 23008KT P6SM SCT030=

USA.gov is the U.S. government's official web portal to all federal, state and local government web resources and services.